Time;durP1;ratioP1;P1;durP2;ratioP2;P2;SDS_P1;SDS_P2;PMS_P1;PMS_P2;Temp;Humidity;BMP_temperature;BMP_pressure;BME280_temperature;BME280_humidity;BME280_pressure;Samples;Min_cycle;Max_cycle;Signal;HPM_P1;HPM_P2
2023/12/03 00:02:20;;;;;;;58.35;25.85;;;1.60;99.90;;;;;;5044907;28;20025;-73
2023/12/03 00:04:47;;;;;;;64.95;28.63;;;1.50;99.90;;;;;;5044934;28;20556;-72
2023/12/03 00:07:13;;;;;;;59.63;25.70;;;1.50;99.90;;;;;;5045164;28;20098;-73
2023/12/03 00:09:39;;;;;;;61.78;27.05;;;1.50;99.90;;;;;;5045189;28;20072;-73
2023/12/03 00:12:06;;;;;;;63.10;26.52;;;1.50;99.90;;;;;;5045370;28;20048;-73
2023/12/03 00:14:32;;;;;;;68.40;26.85;;;1.50;99.90;;;;;;5045192;28;20113;-73
2023/12/03 00:16:57;;;;;;;64.82;27.05;;;1.50;99.90;;;;;;5045283;28;20020;-73
2023/12/03 00:19:25;;;;;;;55.92;23.90;;;1.50;99.90;;;;;;5045566;28;20090;-73
2023/12/03 00:21:50;;;;;;;67.95;27.45;;;1.50;99.90;;;;;;5044943;28;20164;-73
2023/12/03 00:24:17;;;;;;;70.72;29.45;;;1.60;99.90;;;;;;5045890;28;20096;-73
2023/12/03 00:26:42;;;;;;;70.45;28.20;;;1.60;99.90;;;;;;5046147;28;20036;-73
2023/12/03 00:29:08;;;;;;;77.72;30.08;;;1.60;99.90;;;;;;5046074;28;20029;-73
2023/12/03 00:31:35;;;;;;;84.97;31.58;;;1.50;99.90;;;;;;5045990;28;20021;-73
2023/12/03 00:34:02;;;;;;;80.93;29.52;;;1.50;99.90;;;;;;5046560;28;20028;-73
2023/12/03 00:36:28;;;;;;;96.43;32.78;;;1.50;99.90;;;;;;5046090;28;20025;-73
2023/12/03 00:38:54;;;;;;;85.15;29.05;;;1.50;99.90;;;;;;5039038;28;20491;-73
2023/12/03 00:41:20;;;;;;;89.00;30.67;;;1.50;99.90;;;;;;5062994;28;20043;-73
2023/12/03 00:43:45;;;;;;;89.38;30.80;;;1.50;99.90;;;;;;5070535;28;20095;-73
2023/12/03 00:46:11;;;;;;;77.82;28.15;;;1.40;99.90;;;;;;5070391;28;20028;-73
2023/12/03 00:48:38;;;;;;;87.60;29.63;;;1.50;99.90;;;;;;5070090;28;20050;-73
2023/12/03 00:51:04;;;;;;;98.32;32.45;;;1.50;99.90;;;;;;5070207;28;20102;-73
2023/12/03 00:53:30;;;;;;;92.72;30.02;;;1.50;99.90;;;;;;5069987;28;20048;-73
2023/12/03 00:55:55;;;;;;;91.82;29.55;;;1.50;99.90;;;;;;5051674;28;20738;-72
2023/12/03 00:58:21;;;;;;;85.70;29.95;;;1.40;99.90;;;;;;5069920;28;20012;-73
2023/12/03 01:00:46;;;;;;;95.03;30.60;;;1.40;99.90;;;;;;5070243;28;20025;-72
2023/12/03 01:03:12;;;;;;;91.35;28.20;;;1.40;99.90;;;;;;5069877;28;20024;-72
2023/12/03 01:05:38;;;;;;;87.90;28.63;;;1.40;99.90;;;;;;5069834;28;20028;-72
2023/12/03 01:08:04;;;;;;;94.88;28.00;;;1.40;99.90;;;;;;5069679;28;20047;-73
2023/12/03 01:10:30;;;;;;;113.25;29.55;;;1.40;99.90;;;;;;5069973;28;20025;-73
2023/12/03 01:12:56;;;;;;;96.55;30.27;;;1.40;99.90;;;;;;5069125;28;20016;-73
2023/12/03 01:15:21;;;;;;;96.43;27.73;;;1.40;99.90;;;;;;5070175;28;20023;-73
2023/12/03 01:17:47;;;;;;;108.78;31.15;;;1.40;99.90;;;;;;5069287;28;20067;-73
2023/12/03 01:20:13;;;;;;;110.88;29.35;;;1.40;99.90;;;;;;5070287;28;20114;-72
2023/12/03 01:22:38;;;;;;;139.43;30.73;;;1.50;99.90;;;;;;5051454;28;20037;-72
2023/12/03 01:25:04;;;;;;;96.28;26.83;;;1.50;99.90;;;;;;5069930;28;20024;-72
2023/12/03 01:27:30;;;;;;;99.30;25.38;;;1.50;99.90;;;;;;5058668;28;20028;-72
2023/12/03 01:29:56;;;;;;;127.45;31.50;;;1.50;99.90;;;;;;5070198;28;20020;-73
2023/12/03 01:32:22;;;;;;;167.60;34.03;;;1.50;99.90;;;;;;5069710;28;20027;-73
2023/12/03 01:34:47;;;;;;;126.10;29.40;;;1.50;99.90;;;;;;5069717;28;20021;-72
2023/12/03 01:37:13;;;;;;;119.78;27.90;;;1.50;99.90;;;;;;5062283;28;20480;-73
2023/12/03 01:39:39;;;;;;;154.45;32.45;;;1.60;99.90;;;;;;5037262;28;20048;-72
2023/12/03 01:42:04;;;;;;;164.50;31.77;;;1.60;99.90;;;;;;5064606;28;20100;-73
2023/12/03 01:44:30;;;;;;;185.15;32.38;;;1.50;99.90;;;;;;5069536;28;20031;-73
2023/12/03 01:46:58;;;;;;;140.07;28.90;;;1.60;99.90;;;;;;5069031;28;20048;-73
2023/12/03 01:49:24;;;;;;;150.02;30.05;;;1.50;99.90;;;;;;5068688;28;20029;-72
2023/12/03 01:51:50;;;;;;;156.80;33.45;;;1.60;99.90;;;;;;5066584;28;20038;-73
2023/12/03 01:54:16;;;;;;;163.77;32.47;;;1.60;99.90;;;;;;5050175;28;20083;-72
2023/12/03 01:56:41;;;;;;;142.13;30.25;;;1.60;99.90;;;;;;5068119;28;20386;-73
2023/12/03 01:59:07;;;;;;;175.52;33.25;;;1.60;99.90;;;;;;5068362;28;20070;-73
2023/12/03 02:01:32;;;;;;;172.48;33.13;;;1.70;99.90;;;;;;5068061;28;20029;-73
2023/12/03 02:03:58;;;;;;;130.65;30.10;;;1.60;99.90;;;;;;5068509;28;20158;-72
2023/12/03 02:06:24;;;;;;;155.02;32.58;;;1.70;99.90;;;;;;5068926;28;20132;-73
2023/12/03 02:08:50;;;;;;;144.43;30.80;;;1.70;99.90;;;;;;5068748;28;20469;-73
2023/12/03 02:11:16;;;;;;;180.25;35.70;;;1.70;99.90;;;;;;5068740;28;20054;-73
2023/12/03 02:13:42;;;;;;;132.50;25.73;;;1.70;99.90;;;;;;5068802;28;20024;-73
2023/12/03 02:16:08;;;;;;;136.82;27.58;;;1.70;99.90;;;;;;5068930;28;20815;-73
2023/12/03 02:18:34;;;;;;;115.10;26.88;;;1.80;99.90;;;;;;5068409;28;20107;-73
2023/12/03 02:21:00;;;;;;;151.32;30.40;;;1.80;99.90;;;;;;5050492;28;20044;-72
2023/12/03 02:23:30;;;;;;;164.82;32.83;;;1.80;99.90;;;;;;5068432;28;20052;-73
2023/12/03 02:25:57;;;;;;;153.57;29.90;;;1.90;99.90;;;;;;5069154;28;20025;-73
2023/12/03 02:28:22;;;;;;;166.02;33.42;;;1.80;99.90;;;;;;5068535;28;20087;-73
2023/12/03 02:30:48;;;;;;;161.50;31.50;;;1.90;99.90;;;;;;5050608;28;20613;-73
2023/12/03 02:33:14;;;;;;;167.65;31.67;;;1.90;99.90;;;;;;5050207;28;20017;-73
2023/12/03 02:35:39;;;;;;;160.80;28.33;;;1.90;99.90;;;;;;5068122;28;20024;-74
2023/12/03 02:38:05;;;;;;;150.65;32.03;;;1.90;99.90;;;;;;5066103;28;20024;-74
2023/12/03 02:40:32;;;;;;;140.70;28.63;;;1.90;99.90;;;;;;5056086;28;20434;-73
2023/12/03 02:42:58;;;;;;;156.25;30.73;;;1.90;99.90;;;;;;5067968;28;20462;-73
2023/12/03 02:45:24;;;;;;;147.32;31.38;;;2.00;99.90;;;;;;5053996;28;20481;-73
2023/12/03 02:47:49;;;;;;;137.52;31.05;;;2.00;99.90;;;;;;5067396;28;20025;-73
2023/12/03 02:50:15;;;;;;;135.25;31.02;;;2.00;99.90;;;;;;5067501;28;20028;-74
2023/12/03 02:52:41;;;;;;;146.77;31.88;;;2.00;99.90;;;;;;5063764;28;20031;-73
2023/12/03 02:55:07;;;;;;;106.22;27.55;;;2.00;99.90;;;;;;5068486;28;20032;-73
2023/12/03 02:57:34;;;;;;;132.32;30.25;;;2.00;99.90;;;;;;5067756;28;20036;-73
2023/12/03 03:00:00;;;;;;;126.45;29.05;;;2.10;99.90;;;;;;5059807;28;20020;-73
2023/12/03 03:02:25;;;;;;;136.43;33.17;;;2.10;99.90;;;;;;5067067;28;20120;-73
2023/12/03 03:04:51;;;;;;;116.07;29.58;;;2.10;99.90;;;;;;5068008;28;20044;-73
2023/12/03 03:07:17;;;;;;;133.25;33.25;;;2.10;99.90;;;;;;5067448;28;20119;-73
2023/12/03 03:09:42;;;;;;;94.03;28.35;;;2.20;99.90;;;;;;5067622;28;20032;-73
2023/12/03 03:12:08;;;;;;;118.80;32.28;;;2.20;99.90;;;;;;5067532;28;20067;-73
2023/12/03 03:14:34;;;;;;;121.47;31.17;;;2.20;99.90;;;;;;5067446;28;20040;-73
2023/12/03 03:16:59;;;;;;;126.97;32.40;;;2.20;99.90;;;;;;5066188;28;20115;-73
2023/12/03 03:19:25;;;;;;;100.35;33.55;;;2.20;99.90;;;;;;5067453;28;20082;-74
2023/12/03 03:21:51;;;;;;;93.78;30.67;;;2.20;99.90;;;;;;5067347;28;20103;-73
2023/12/03 03:24:17;;;;;;;99.75;33.42;;;2.20;99.90;;;;;;5067250;28;20017;-73
2023/12/03 03:26:42;;;;;;;77.03;29.23;;;2.20;99.90;;;;;;5067733;28;20078;-73
2023/12/03 03:29:08;;;;;;;82.43;30.48;;;2.20;99.90;;;;;;5067414;28;20020;-73
2023/12/03 03:31:34;;;;;;;86.60;30.95;;;2.30;99.90;;;;;;5067026;28;20078;-74
2023/12/03 03:33:59;;;;;;;74.13;28.33;;;2.30;99.90;;;;;;5067405;28;20082;-74
2023/12/03 03:36:25;;;;;;;77.20;29.42;;;2.40;99.90;;;;;;5067322;28;20035;-74
2023/12/03 03:38:51;;;;;;;76.38;32.70;;;2.30;99.90;;;;;;5058582;28;20453;-73
2023/12/03 03:41:16;;;;;;;73.97;30.98;;;2.40;99.90;;;;;;5061190;28;20036;-74
2023/12/03 03:43:42;;;;;;;76.45;31.75;;;2.40;99.90;;;;;;5052911;28;20033;-73
2023/12/03 03:46:10;;;;;;;78.07;32.38;;;2.40;99.90;;;;;;5048941;28;20457;-73
2023/12/03 03:48:36;;;;;;;67.28;30.65;;;2.40;99.90;;;;;;5066478;28;20116;-74
2023/12/03 03:51:01;;;;;;;66.18;30.20;;;2.40;99.90;;;;;;5049087;28;20103;-74
2023/12/03 03:53:27;;;;;;;66.45;31.85;;;2.40;99.90;;;;;;5066975;28;20482;-73
2023/12/03 03:55:53;;;;;;;65.72;29.17;;;2.40;99.90;;;;;;5066905;28;20028;-72
2023/12/03 03:58:18;;;;;;;69.07;29.77;;;2.50;99.90;;;;;;5067365;28;20045;-73
2023/12/03 04:00:44;;;;;;;53.92;26.30;;;2.40;99.90;;;;;;5066990;28;20032;-73
2023/12/03 04:03:10;;;;;;;65.50;31.15;;;2.40;99.90;;;;;;5066730;28;20116;-73
2023/12/03 04:05:35;;;;;;;57.38;28.83;;;2.40;99.90;;;;;;5066498;28;20047;-73
2023/12/03 04:08:01;;;;;;;58.75;29.58;;;2.40;99.90;;;;;;5066202;28;20032;-73
2023/12/03 04:10:27;;;;;;;66.97;31.23;;;2.50;99.90;;;;;;5065860;28;20071;-74
2023/12/03 04:12:52;;;;;;;62.03;29.77;;;2.40;99.90;;;;;;5049865;28;20060;-73
2023/12/03 04:15:18;;;;;;;54.80;26.35;;;2.40;99.90;;;;;;5066799;28;20473;-73
2023/12/03 04:17:44;;;;;;;58.25;28.65;;;2.40;99.90;;;;;;5064697;28;20108;-73
2023/12/03 04:20:11;;;;;;;55.00;27.45;;;2.50;99.90;;;;;;5058967;28;20108;-73
2023/12/03 04:22:37;;;;;;;62.03;29.35;;;2.50;99.90;;;;;;5046597;28;20020;-73
2023/12/03 04:25:03;;;;;;;48.45;27.60;;;2.50;99.90;;;;;;5065345;28;20016;-73
2023/12/03 04:27:28;;;;;;;48.80;25.45;;;2.50;99.90;;;;;;5065233;28;20545;-73
2023/12/03 04:29:54;;;;;;;48.67;25.58;;;2.50;99.90;;;;;;5065432;28;20413;-74
2023/12/03 04:32:20;;;;;;;44.83;24.73;;;2.50;99.90;;;;;;5047838;28;20016;-74
2023/12/03 04:34:45;;;;;;;46.88;24.30;;;2.50;99.90;;;;;;5066260;28;20032;-73
2023/12/03 04:37:11;;;;;;;49.38;26.60;;;2.50;99.90;;;;;;5066238;28;20412;-74
2023/12/03 04:39:37;;;;;;;44.83;23.55;;;2.50;99.90;;;;;;5052262;28;20080;-74
2023/12/03 04:42:02;;;;;;;46.88;25.20;;;2.40;99.90;;;;;;5066630;28;20023;-73
2023/12/03 04:44:31;;;;;;;44.58;23.67;;;2.50;99.90;;;;;;5066350;28;20482;-73
2023/12/03 04:46:56;;;;;;;47.65;25.38;;;2.40;99.90;;;;;;5066245;28;20052;-73
2023/12/03 04:49:23;;;;;;;44.25;22.80;;;2.40;99.90;;;;;;5066056;28;20047;-74
2023/12/03 04:51:49;;;;;;;44.15;23.08;;;2.40;99.90;;;;;;5066234;28;20383;-74
2023/12/03 04:54:15;;;;;;;43.88;23.02;;;2.40;99.90;;;;;;5066100;28;20537;-73
2023/12/03 04:56:41;;;;;;;40.67;20.95;;;2.40;99.90;;;;;;5066415;28;20024;-74
2023/12/03 04:59:07;;;;;;;41.60;21.98;;;2.40;99.90;;;;;;5066347;28;20021;-74
2023/12/03 05:01:33;;;;;;;42.25;22.58;;;2.40;99.90;;;;;;5066258;28;20055;-74
2023/12/03 05:03:58;;;;;;;41.65;21.98;;;2.40;99.90;;;;;;5066056;28;20017;-73
2023/12/03 05:06:24;;;;;;;39.65;22.35;;;2.40;99.90;;;;;;5064866;28;20025;-74
2023/12/03 05:08:50;;;;;;;42.08;22.52;;;2.40;99.90;;;;;;5065585;28;20099;-73
2023/12/03 05:11:16;;;;;;;38.85;21.48;;;2.40;99.90;;;;;;5066219;28;20017;-74
2023/12/03 05:13:42;;;;;;;43.58;22.42;;;2.40;99.90;;;;;;5066044;28;20055;-75
2023/12/03 05:16:08;;;;;;;42.45;22.40;;;2.40;99.90;;;;;;5065923;28;20017;-74
2023/12/03 05:18:34;;;;;;;40.97;21.65;;;2.40;99.90;;;;;;5065875;28;20805;-74
2023/12/03 05:21:01;;;;;;;41.35;21.23;;;2.40;99.90;;;;;;5066285;28;20044;-74
2023/12/03 05:23:27;;;;;;;39.83;20.17;;;2.40;99.90;;;;;;5066197;28;20021;-73
2023/12/03 05:25:53;;;;;;;41.08;20.63;;;2.40;99.90;;;;;;5067691;28;20025;-74
2023/12/03 05:28:18;;;;;;;41.80;21.30;;;2.40;99.90;;;;;;5065391;28;20535;-73
2023/12/03 05:30:44;;;;;;;45.33;21.73;;;2.40;99.90;;;;;;5068044;28;20361;-74
2023/12/03 05:33:10;;;;;;;39.13;19.55;;;2.40;99.90;;;;;;5054350;28;20048;-74
2023/12/03 05:35:36;;;;;;;40.97;20.25;;;2.40;99.90;;;;;;5069450;28;20067;-74
2023/12/03 05:38:02;;;;;;;42.28;21.33;;;2.40;99.90;;;;;;5068236;28;20062;-74
2023/12/03 05:40:28;;;;;;;42.28;21.92;;;2.40;99.90;;;;;;5057091;28;20068;-74
2023/12/03 05:42:53;;;;;;;45.72;21.48;;;2.40;99.90;;;;;;5069345;28;20044;-74
2023/12/03 05:45:19;;;;;;;41.92;21.42;;;2.40;99.90;;;;;;5051387;28;20030;-74
2023/12/03 05:47:45;;;;;;;38.10;19.33;;;2.30;99.90;;;;;;5051162;28;20039;-74
2023/12/03 05:50:11;;;;;;;44.38;22.48;;;2.30;99.90;;;;;;5069509;28;20370;-73
2023/12/03 05:52:36;;;;;;;36.65;19.95;;;2.20;99.90;;;;;;5069184;28;20028;-74
2023/12/03 05:55:02;;;;;;;40.75;20.42;;;2.20;99.90;;;;;;5069264;28;20027;-73
2023/12/03 05:57:28;;;;;;;39.30;20.35;;;2.20;99.90;;;;;;5069322;28;20021;-73
2023/12/03 05:59:54;;;;;;;42.42;21.05;;;2.10;99.90;;;;;;5069507;28;20426;-74
2023/12/03 06:02:20;;;;;;;39.28;19.92;;;2.00;99.90;;;;;;5069383;28;20476;-74
2023/12/03 06:04:46;;;;;;;42.38;21.80;;;2.00;99.90;;;;;;5068909;28;20071;-73
2023/12/03 06:07:12;;;;;;;45.38;21.38;;;2.00;99.90;;;;;;5069019;28;20528;-74
2023/12/03 06:09:38;;;;;;;41.80;21.98;;;1.90;99.90;;;;;;5068625;28;20032;-74
2023/12/03 06:12:04;;;;;;;44.03;21.15;;;1.90;99.90;;;;;;5069154;28;20116;-74
2023/12/03 06:14:31;;;;;;;40.67;20.88;;;1.80;99.90;;;;;;5050747;28;20056;-74
2023/12/03 06:16:57;;;;;;;39.90;20.95;;;1.80;99.90;;;;;;5069240;28;20016;-74
2023/12/03 06:19:23;;;;;;;45.00;20.20;;;1.80;99.90;;;;;;5068713;28;20021;-74
2023/12/03 06:21:48;;;;;;;42.55;21.13;;;1.70;99.90;;;;;;5062906;28;20452;-74
2023/12/03 06:24:14;;;;;;;45.72;20.88;;;1.70;99.90;;;;;;5050522;28;20020;-73
2023/12/03 06:26:39;;;;;;;45.08;22.35;;;1.70;99.90;;;;;;5068700;28;20021;-74
2023/12/03 06:29:05;;;;;;;46.28;20.83;;;1.60;99.90;;;;;;5068427;28;20029;-74
2023/12/03 06:31:32;;;;;;;42.83;20.70;;;1.60;99.90;;;;;;5068619;28;20371;-74
2023/12/03 06:33:58;;;;;;;44.40;21.77;;;1.50;99.90;;;;;;5056664;28;20445;-74
2023/12/03 06:36:25;;;;;;;47.38;22.38;;;1.50;99.90;;;;;;5068487;28;20074;-73
2023/12/03 06:38:51;;;;;;;44.38;21.25;;;1.50;99.90;;;;;;5048210;28;20025;-74
2023/12/03 06:41:17;;;;;;;50.88;23.90;;;1.50;99.90;;;;;;5062183;28;20048;-73
2023/12/03 06:43:43;;;;;;;47.42;22.20;;;1.50;99.90;;;;;;5068094;28;20048;-74
2023/12/03 06:46:08;;;;;;;44.28;22.17;;;1.40;99.90;;;;;;5068273;28;20071;-74
2023/12/03 06:48:34;;;;;;;41.03;20.00;;;1.40;99.90;;;;;;5055524;28;20036;-73
2023/12/03 06:50:59;;;;;;;50.50;22.25;;;1.40;99.90;;;;;;5068552;28;20090;-74
2023/12/03 06:53:25;;;;;;;46.28;21.65;;;1.40;99.90;;;;;;5058586;28;20493;-74
2023/12/03 06:55:51;;;;;;;48.22;23.15;;;1.30;99.90;;;;;;5068017;28;20036;-73
2023/12/03 06:58:16;;;;;;;56.28;24.98;;;1.30;99.90;;;;;;5067856;28;20048;-73
2023/12/03 07:00:42;;;;;;;50.95;21.77;;;1.30;99.90;;;;;;5067850;28;20893;-74
2023/12/03 07:03:08;;;;;;;49.00;24.02;;;1.30;99.90;;;;;;5049858;28;20021;-74
2023/12/03 07:05:33;;;;;;;50.50;23.02;;;1.20;99.90;;;;;;5068098;28;20017;-73
2023/12/03 07:07:59;;;;;;;57.65;26.42;;;1.20;99.90;;;;;;5047735;28;20036;-73
2023/12/03 07:10:25;;;;;;;54.65;24.45;;;1.20;99.90;;;;;;5060143;28;20025;-74
2023/12/03 07:12:50;;;;;;;52.47;22.55;;;1.10;99.90;;;;;;5051408;28;20067;-74
2023/12/03 07:15:16;;;;;;;52.75;24.05;;;1.00;99.90;;;;;;5067497;28;20432;-74
2023/12/03 07:17:42;;;;;;;50.30;21.95;;;1.00;99.90;;;;;;5049341;28;20020;-74
2023/12/03 07:20:08;;;;;;;56.08;23.05;;;1.00;99.90;;;;;;5067454;28;20028;-74
2023/12/03 07:22:34;;;;;;;61.58;25.33;;;1.00;99.90;;;;;;5067383;28;20036;-74
2023/12/03 07:25:00;;;;;;;57.05;23.15;;;1.00;99.90;;;;;;5053653;28;20021;-74
2023/12/03 07:27:25;;;;;;;55.85;23.17;;;1.00;99.90;;;;;;5067617;28;20079;-74
2023/12/03 07:29:57;;;;;;;50.70;22.02;;;1.00;99.90;;;;;;5066240;28;20103;-74
2023/12/03 07:32:23;;;;;;;55.97;23.58;;;0.90;99.90;;;;;;5067449;28;20524;-74
2023/12/03 07:34:49;;;;;;;55.42;23.58;;;0.90;99.90;;;;;;5048971;28;20028;-75
2023/12/03 07:37:15;;;;;;;53.97;23.95;;;0.90;99.90;;;;;;5067319;28;20035;-74
2023/12/03 07:39:40;;;;;;;47.97;22.48;;;0.90;99.90;;;;;;5052493;28;20048;-74
2023/12/03 07:42:06;;;;;;;48.72;20.77;;;0.80;99.90;;;;;;5062713;28;20058;-74
2023/12/03 07:44:32;;;;;;;43.92;20.27;;;0.80;99.90;;;;;;5067057;28;20025;-74
2023/12/03 07:46:58;;;;;;;48.70;21.23;;;0.80;99.90;;;;;;5066610;28;20108;-74
2023/12/03 07:49:24;;;;;;;49.75;22.60;;;0.80;99.90;;;;;;5065897;28;20035;-74
2023/12/03 07:51:50;;;;;;;49.35;21.40;;;0.80;99.90;;;;;;5067348;28;20025;-74
2023/12/03 07:54:16;;;;;;;53.03;22.25;;;0.80;99.90;;;;;;5066297;28;20025;-74
2023/12/03 07:56:42;;;;;;;51.33;22.23;;;0.80;99.90;;;;;;5066633;28;20032;-72
2023/12/03 07:59:08;;;;;;;51.17;21.95;;;0.80;99.90;;;;;;5066583;28;20019;-72
2023/12/03 08:01:34;;;;;;;49.35;21.75;;;0.80;99.90;;;;;;5066757;28;20028;-72
2023/12/03 08:04:00;;;;;;;54.67;21.92;;;0.80;99.90;;;;;;5066333;28;20489;-72
2023/12/03 08:06:26;;;;;;;47.92;20.30;;;0.70;99.90;;;;;;5048740;28;20028;-72
2023/12/03 08:08:53;;;;;;;53.35;20.48;;;0.70;99.90;;;;;;5066409;28;20393;-72
2023/12/03 08:11:19;;;;;;;46.67;22.63;;;0.80;99.90;;;;;;5066920;28;20031;-72
2023/12/03 08:13:46;;;;;;;50.78;22.40;;;0.80;99.90;;;;;;5066326;28;20386;-73
2023/12/03 08:16:12;;;;;;;46.20;20.20;;;0.80;99.90;;;;;;5066861;28;20057;-72
2023/12/03 08:18:39;;;;;;;47.05;20.80;;;0.80;99.90;;;;;;5066467;28;20024;-73
2023/12/03 08:21:05;;;;;;;52.70;22.48;;;0.80;99.90;;;;;;5066913;28;20074;-72
2023/12/03 08:23:32;;;;;;;41.92;19.92;;;0.80;99.90;;;;;;5065401;28;20028;-73
2023/12/03 08:25:58;;;;;;;43.55;19.73;;;0.90;99.90;;;;;;5066599;28;20032;-73
2023/12/03 08:28:24;;;;;;;43.83;19.20;;;0.90;99.90;;;;;;5048972;28;20031;-72
2023/12/03 08:30:49;;;;;;;51.30;20.60;;;0.90;99.90;;;;;;5063883;28;20025;-72
2023/12/03 08:33:15;;;;;;;45.70;20.98;;;1.00;99.90;;;;;;5067115;28;20020;-71
2023/12/03 08:35:41;;;;;;;46.70;20.48;;;1.00;99.90;;;;;;5066293;28;20032;-72
2023/12/03 08:38:07;;;;;;;43.20;19.23;;;1.00;99.90;;;;;;5063845;28;20515;-72
2023/12/03 08:40:33;;;;;;;38.28;18.77;;;1.00;99.90;;;;;;5065117;28;20048;-72
2023/12/03 08:42:59;;;;;;;41.65;18.92;;;1.10;99.90;;;;;;5048118;28;20074;-72
2023/12/03 08:45:25;;;;;;;40.83;20.23;;;1.10;99.90;;;;;;5065509;28;20036;-72
2023/12/03 08:47:51;;;;;;;46.38;20.05;;;1.20;99.90;;;;;;5066062;28;20371;-72
2023/12/03 08:50:16;;;;;;;44.03;21.65;;;1.20;99.90;;;;;;5066016;28;20040;-73
2023/12/03 08:52:42;;;;;;;40.60;18.30;;;1.20;99.90;;;;;;5066420;28;20090;-72
2023/12/03 08:55:08;;;;;;;42.22;20.60;;;1.20;99.90;;;;;;5066267;28;20473;-72
2023/12/03 08:57:35;;;;;;;36.45;17.42;;;1.20;99.90;;;;;;5066819;28;20012;-72
2023/12/03 09:00:01;;;;;;;36.72;17.38;;;1.30;99.90;;;;;;5066838;28;20021;-72
2023/12/03 09:02:26;;;;;;;37.13;18.17;;;1.30;99.90;;;;;;5069107;28;20021;-72
2023/12/03 09:04:52;;;;;;;37.20;17.20;;;1.40;99.90;;;;;;5063668;28;20052;-72
2023/12/03 09:07:18;;;;;;;42.83;19.70;;;1.40;99.90;;;;;;5070447;28;20035;-72
2023/12/03 09:09:44;;;;;;;38.25;18.50;;;1.50;99.90;;;;;;5069689;28;20024;-73
2023/12/03 09:12:10;;;;;;;43.13;19.83;;;1.50;99.90;;;;;;5070358;28;20020;-73
2023/12/03 09:14:35;;;;;;;41.53;20.23;;;1.50;99.90;;;;;;5069846;28;20548;-71
2023/12/03 09:17:03;;;;;;;43.17;19.67;;;1.50;99.90;;;;;;5070276;28;20024;-72
2023/12/03 09:19:29;;;;;;;39.63;19.35;;;1.50;99.90;;;;;;5069510;28;20108;-72
2023/12/03 09:21:55;;;;;;;40.58;17.42;;;1.50;99.90;;;;;;5069922;28;20032;-73
2023/12/03 09:24:21;;;;;;;42.75;18.85;;;1.50;99.90;;;;;;5054885;28;20071;-73
2023/12/03 09:26:47;;;;;;;39.13;18.60;;;1.60;99.90;;;;;;5070033;28;20154;-73
2023/12/03 09:29:13;;;;;;;36.25;17.63;;;1.60;99.90;;;;;;5069388;28;20021;-72
2023/12/03 09:31:39;;;;;;;39.70;18.67;;;1.70;99.90;;;;;;5068947;28;20556;-73
2023/12/03 09:34:05;;;;;;;37.63;17.50;;;1.70;99.90;;;;;;5069178;28;20086;-73
2023/12/03 09:36:31;;;;;;;35.28;18.50;;;1.70;99.90;;;;;;5068602;28;20501;-73
2023/12/03 09:38:57;;;;;;;35.83;17.65;;;1.70;99.90;;;;;;5069013;28;20024;-73
2023/12/03 09:41:24;;;;;;;37.15;17.65;;;1.70;99.90;;;;;;5068853;28;20068;-73
2023/12/03 09:43:55;;;;;;;38.65;19.20;;;1.80;99.90;;;;;;5068154;28;20060;-73
2023/12/03 09:46:23;;;;;;;32.17;16.15;;;1.90;99.90;;;;;;5069122;28;20060;-73
2023/12/03 09:48:50;;;;;;;31.13;15.60;;;1.90;99.90;;;;;;5050446;28;20020;-72
2023/12/03 09:51:18;;;;;;;32.10;17.00;;;2.00;99.90;;;;;;5068413;28;20021;-73
2023/12/03 09:53:47;;;;;;;35.55;17.20;;;1.90;99.90;;;;;;5069360;28;20127;-72
2023/12/03 09:56:13;;;;;;;35.83;17.38;;;2.00;99.90;;;;;;5050921;28;20024;-73
2023/12/03 09:58:39;;;;;;;34.67;16.48;;;2.00;99.90;;;;;;5054510;28;20032;-73
2023/12/03 10:01:06;;;;;;;30.65;16.23;;;2.00;99.90;;;;;;5050654;28;20718;-72
2023/12/03 10:03:32;;;;;;;33.00;16.00;;;2.00;99.90;;;;;;5068056;28;20174;-73
2023/12/03 10:05:57;;;;;;;32.67;16.05;;;2.10;99.90;;;;;;5069004;28;20028;-73
2023/12/03 10:08:26;;;;;;;32.67;16.35;;;2.10;99.90;;;;;;5068177;28;20631;-73
2023/12/03 10:11:02;;;;;;;34.53;16.88;;;2.20;99.90;;;;;;5068250;28;20035;-73
2023/12/03 10:13:30;;;;;;;34.17;16.73;;;2.30;99.90;;;;;;5068143;28;20017;-73
2023/12/03 10:15:56;;;;;;;37.10;17.48;;;2.30;99.90;;;;;;5068604;28;20028;-73
2023/12/03 10:18:22;;;;;;;25.90;14.60;;;2.40;99.90;;;;;;5068901;28;20016;-73
2023/12/03 10:20:48;;;;;;;32.72;16.10;;;2.40;99.90;;;;;;5068507;28;20051;-72
2023/12/03 10:23:15;;;;;;;30.90;15.63;;;2.40;99.90;;;;;;5067768;28;20033;-73
2023/12/03 10:25:41;;;;;;;30.25;15.20;;;2.40;99.90;;;;;;5068123;28;20032;-73
2023/12/03 10:28:08;;;;;;;29.98;15.25;;;2.30;99.90;;;;;;5050088;28;20111;-72
2023/12/03 10:30:36;;;;;;;31.38;16.55;;;2.30;99.90;;;;;;5068429;28;20024;-74
2023/12/03 10:33:05;;;;;;;30.90;15.70;;;2.30;99.90;;;;;;5067987;28;20029;-73
2023/12/03 10:35:35;;;;;;;31.88;15.70;;;2.30;99.90;;;;;;5067993;28;20031;-74
2023/12/03 10:38:04;;;;;;;31.27;15.20;;;2.30;99.90;;;;;;5068039;28;20024;-73
2023/12/03 10:40:33;;;;;;;28.52;15.10;;;2.40;99.90;;;;;;5068037;28;20513;-73
2023/12/03 10:43:01;;;;;;;32.60;16.45;;;2.40;99.90;;;;;;5056054;28;20120;-73
2023/12/03 10:45:27;;;;;;;32.50;15.15;;;2.60;99.90;;;;;;5060448;28;20045;-73
2023/12/03 10:47:58;;;;;;;27.83;14.55;;;2.70;99.90;;;;;;5068201;28;20032;-74
2023/12/03 10:50:25;;;;;;;28.23;13.63;;;2.70;99.90;;;;;;5067840;28;20024;-74
2023/12/03 10:52:52;;;;;;;26.55;14.52;;;2.80;99.90;;;;;;5067845;28;20029;-73
2023/12/03 10:55:18;;;;;;;30.42;14.38;;;2.90;99.90;;;;;;5067597;28;20068;-74
2023/12/03 10:57:58;;;;;;;28.25;14.30;;;3.00;99.90;;;;;;5067641;28;20106;-73
2023/12/03 11:00:28;;;;;;;27.93;14.13;;;3.10;99.90;;;;;;5080308;28;20563;-73
2023/12/03 11:03:26;;;;;;;27.73;14.40;;;3.10;99.90;;;;;;5066838;28;20110;-74
2023/12/03 11:05:53;;;;;;;25.02;13.30;;;3.20;99.90;;;;;;5059753;28;20044;-74
2023/12/03 11:08:22;;;;;;;26.38;13.50;;;3.20;99.90;;;;;;5067465;28;20031;-74
2023/12/03 11:10:53;;;;;;;25.38;14.02;;;3.30;99.90;;;;;;5048796;28;20025;-73
2023/12/03 11:13:21;;;;;;;24.27;12.95;;;3.40;99.90;;;;;;5067027;28;20028;-73
2023/12/03 11:15:48;;;;;;;21.95;11.68;;;3.30;99.90;;;;;;5066576;28;20863;-74
2023/12/03 11:18:15;;;;;;;23.63;12.35;;;3.30;99.90;;;;;;5067275;28;20103;-74
2023/12/03 11:20:44;;;;;;;23.95;13.02;;;3.20;99.90;;;;;;5066985;28;20095;-74
2023/12/03 11:23:39;;;;;;;22.85;12.50;;;3.20;99.90;;;;;;5048206;28;20024;-74
2023/12/03 11:26:15;;;;;;;22.63;12.23;;;3.10;99.90;;;;;;5062710;28;20044;-74
2023/12/03 11:28:54;;;;;;;24.42;12.73;;;3.00;99.90;;;;;;5066979;28;20394;-73
2023/12/03 11:31:20;;;;;;;23.13;12.30;;;3.00;99.90;;;;;;5064157;28;20041;-74
2023/12/03 11:33:58;;;;;;;24.58;12.13;;;3.00;99.90;;;;;;5065637;28;20037;-74
2023/12/03 11:36:52;;;;;;;24.70;11.77;;;2.90;99.90;;;;;;5061196;28;20040;-73
2023/12/03 11:39:19;;;;;;;20.88;11.40;;;2.90;99.90;;;;;;5063602;28;20024;-73
2023/12/03 11:41:45;;;;;;;22.58;12.18;;;2.90;99.90;;;;;;5043217;28;20478;-73
2023/12/03 11:44:18;;;;;;;22.55;11.32;;;2.90;99.90;;;;;;5064889;28;20031;-73
2023/12/03 11:47:00;;;;;;;22.30;11.57;;;3.00;99.90;;;;;;5065015;28;20025;-74
2023/12/03 11:49:27;;;;;;;22.88;11.25;;;3.10;99.90;;;;;;5034018;28;20025;-73
2023/12/03 11:51:54;;;;;;;26.45;11.48;;;3.10;99.90;;;;;;5065386;28;20024;-74
2023/12/03 11:54:28;;;;;;;23.55;12.48;;;3.20;99.90;;;;;;5065894;28;20025;-74
2023/12/03 11:56:54;;;;;;;22.55;11.57;;;3.20;99.90;;;;;;5066543;28;20032;-73
2023/12/03 11:59:21;;;;;;;20.83;11.18;;;3.20;99.90;;;;;;5065951;28;20702;-73
2023/12/03 12:01:47;;;;;;;22.05;11.70;;;3.30;99.90;;;;;;5066454;28;20112;-73
2023/12/03 12:04:22;;;;;;;22.15;11.07;;;3.50;99.90;;;;;;5065711;28;20222;-73
2023/12/03 12:06:49;;;;;;;22.13;12.10;;;3.60;99.90;;;;;;5049963;28;20024;-73
2023/12/03 12:09:22;;;;;;;21.85;12.20;;;3.70;99.90;;;;;;5065765;28;20028;-74
2023/12/03 12:11:49;;;;;;;21.52;11.10;;;3.70;99.90;;;;;;5048538;28;20035;-74
2023/12/03 12:14:17;;;;;;;20.98;11.20;;;3.60;99.90;;;;;;5050520;28;20146;-74
2023/12/03 12:16:43;;;;;;;22.65;12.43;;;3.60;99.90;;;;;;5048158;28;20024;-73
2023/12/03 12:19:08;;;;;;;21.67;11.30;;;3.50;99.90;;;;;;5047971;28;20036;-73
2023/12/03 12:21:34;;;;;;;21.63;11.95;;;3.50;99.90;;;;;;5047531;28;20036;-73
2023/12/03 12:23:59;;;;;;;21.38;10.27;;;3.50;99.90;;;;;;5065699;28;20036;-74
2023/12/03 12:26:25;;;;;;;22.13;11.23;;;3.50;99.90;;;;;;5065924;28;20035;-73
2023/12/03 12:28:51;;;;;;;20.13;11.20;;;3.50;99.90;;;;;;5065788;28;20043;-74
2023/12/03 12:31:19;;;;;;;21.05;10.95;;;3.50;99.90;;;;;;5048089;28;20058;-74
2023/12/03 12:33:45;;;;;;;22.92;11.77;;;3.50;99.90;;;;;;5066008;28;20032;-73